createdAt,value
2019-05-23T00:01:16.380Z,88.90
2019-05-23T00:04:01.437Z,89.10
2019-05-23T00:06:28.087Z,89.90
2019-05-23T00:08:56.750Z,89.50
2019-05-23T00:11:30.133Z,89.30
2019-05-23T00:13:56.833Z,89.40
2019-05-23T00:16:26.581Z,89.80
2019-05-23T00:18:53.368Z,89.80
2019-05-23T00:21:20.997Z,89.40
2019-05-23T00:23:47.833Z,89.10
2019-05-23T00:26:15.705Z,89.40
2019-05-23T00:28:43.832Z,89.90
2019-05-23T00:31:22.140Z,90.00
2019-05-23T00:33:49.648Z,90.20
2019-05-23T00:36:17.732Z,90.70
2019-05-23T00:38:45.267Z,90.60
2019-05-23T00:41:13.106Z,90.60
2019-05-23T00:43:40.809Z,90.70
2019-05-23T00:46:08.841Z,90.40
2019-05-23T00:48:37.747Z,91.20
2019-05-23T00:51:05.830Z,90.40
2019-05-23T00:53:34.208Z,91.20
2019-05-23T00:56:01.489Z,90.40
2019-05-23T00:58:29.768Z,91.00
2019-05-23T01:00:57.095Z,91.40
2019-05-23T01:03:27.340Z,90.80
2019-05-23T01:05:54.816Z,90.10
2019-05-23T01:08:21.725Z,90.90
2019-05-23T01:10:50.560Z,91.00
2019-05-23T01:13:17.600Z,91.10
2019-05-23T01:15:44.328Z,90.70
2019-05-23T01:18:11.791Z,91.00
2019-05-23T01:20:54.968Z,91.00
2019-05-23T01:23:22.925Z,91.10
2019-05-23T01:25:50.325Z,90.70
2019-05-23T01:28:18.967Z,91.10
2019-05-23T01:30:47.929Z,91.10
2019-05-23T01:33:14.620Z,91.30
2019-05-23T01:35:42.065Z,91.50
2019-05-23T01:38:10.583Z,92.10
2019-05-23T01:40:37.269Z,92.00
2019-05-23T01:43:04.769Z,92.30
2019-05-23T01:45:34.039Z,91.90
2019-05-23T01:48:00.928Z,92.90
2019-05-23T01:50:28.545Z,91.60
2019-05-23T01:52:55.284Z,91.80
2019-05-23T01:55:22.044Z,91.80
2019-05-23T01:57:49.357Z,92.10
2019-05-23T02:00:18.116Z,91.70
2019-05-23T02:02:47.714Z,91.50
2019-05-23T02:05:14.616Z,91.70
2019-05-23T02:07:42.236Z,91.50
2019-05-23T02:10:09.824Z,91.40
2019-05-23T02:12:37.257Z,92.00
2019-05-23T02:15:05.592Z,92.30
2019-05-23T02:17:32.996Z,92.40
2019-05-23T02:20:01.107Z,92.60
2019-05-23T02:22:28.080Z,92.60
2019-05-23T02:24:55.933Z,92.60
2019-05-23T02:27:24.549Z,93.60
2019-05-23T02:29:51.630Z,93.80
2019-05-23T02:32:18.446Z,94.20
2019-05-23T02:34:45.567Z,94.20
2019-05-23T02:37:27.401Z,94.40
2019-05-23T02:40:03.117Z,94.80
2019-05-23T02:42:39.993Z,95.10
2019-05-23T02:45:10.252Z,95.30
2019-05-23T02:47:39.184Z,94.80
2019-05-23T02:50:10.416Z,95.30
2019-05-23T02:52:43.477Z,94.90
2019-05-23T02:55:19.297Z,95.10
2019-05-23T02:57:46.834Z,95.30
2019-05-23T03:00:53.304Z,95.20
2019-05-23T03:03:13.509Z,95.30
2019-05-23T03:05:41.335Z,95.40
2019-05-23T03:08:11.613Z,95.10
2019-05-23T03:10:53.926Z,95.10
2019-05-23T03:13:24.193Z,95.20
2019-05-23T03:15:51.392Z,95.10
2019-05-23T03:18:20.111Z,95.00
2019-05-23T03:20:47.526Z,95.10
2019-05-23T03:23:15.097Z,94.70
2019-05-23T03:26:24.220Z,95.00
2019-05-23T03:28:51.755Z,95.60
2019-05-23T03:31:37.338Z,95.30
2019-05-23T03:34:06.496Z,95.70
2019-05-23T03:36:34.317Z,95.70
2019-05-23T03:39:01.487Z,95.70
2019-05-23T03:41:29.946Z,95.70
2019-05-23T03:43:56.963Z,96.10
2019-05-23T03:46:24.995Z,96.40
2019-05-23T03:48:53.629Z,96.70
2019-05-23T03:51:20.697Z,97.20
2019-05-23T03:53:48.637Z,97.50
2019-05-23T03:56:15.379Z,98.20
2019-05-23T03:58:42.726Z,98.60
2019-05-23T04:01:11.891Z,99.20
2019-05-23T04:03:40.370Z,99.70
2019-05-23T04:06:07.362Z,99.60
2019-05-23T04:08:33.992Z,99.90
2019-05-23T04:11:01.133Z,99.90
2019-05-23T04:13:28.593Z,99.90
2019-05-23T04:15:56.173Z,99.90
2019-05-23T04:18:23.452Z,99.90
2019-05-23T04:20:51.082Z,99.90
2019-05-23T04:23:18.573Z,99.90
2019-05-23T04:25:45.793Z,99.90
2019-05-23T04:28:12.934Z,99.90
2019-05-23T04:30:39.876Z,99.90
2019-05-23T04:33:06.919Z,99.90
2019-05-23T04:35:34.511Z,99.90
2019-05-23T04:38:01.880Z,99.90
2019-05-23T04:40:29.244Z,99.90
2019-05-23T04:42:55.841Z,99.90
2019-05-23T04:45:23.218Z,99.90
2019-05-23T04:47:50.284Z,99.90
2019-05-23T04:50:17.548Z,99.90
2019-05-23T04:52:44.391Z,99.90
2019-05-23T04:55:12.232Z,99.70
2019-05-23T04:57:40.241Z,99.90
2019-05-23T05:00:09.372Z,99.90
2019-05-23T05:02:36.433Z,98.80
2019-05-23T05:05:03.943Z,93.10
2019-05-23T05:07:30.956Z,90.10
2019-05-23T05:09:57.921Z,90.90
2019-05-23T05:12:24.954Z,88.80
2019-05-23T05:14:52.687Z,83.80
2019-05-23T05:17:19.357Z,78.40
2019-05-23T05:19:46.581Z,75.80
2019-05-23T05:22:13.561Z,73.10
2019-05-23T05:24:40.541Z,74.30
2019-05-23T05:27:08.796Z,76.70
2019-05-23T05:29:35.878Z,78.90
2019-05-23T05:32:04.181Z,81.00
2019-05-23T05:34:31.089Z,82.00
2019-05-23T05:36:58.268Z,81.70
2019-05-23T05:39:25.020Z,81.40
2019-05-23T05:41:52.012Z,81.80
2019-05-23T05:44:18.839Z,81.90
2019-05-23T05:46:45.480Z,80.20
2019-05-23T05:49:12.093Z,78.40
2019-05-23T05:51:39.130Z,77.50
2019-05-23T05:54:06.683Z,78.00
2019-05-23T05:56:33.635Z,77.80
2019-05-23T05:59:00.458Z,79.80
2019-05-23T06:01:33.796Z,77.50
2019-05-23T06:03:57.006Z,75.80
2019-05-23T06:06:31.885Z,76.30
2019-05-23T06:09:00.514Z,75.60
2019-05-23T06:11:28.830Z,74.30
2019-05-23T06:13:55.861Z,72.60
2019-05-23T06:16:22.714Z,69.40
2019-05-23T06:18:49.924Z,69.30
2019-05-23T06:21:21.844Z,66.30
2019-05-23T06:23:48.555Z,63.50
2019-05-23T06:26:15.135Z,59.50
2019-05-23T06:28:42.167Z,57.80
2019-05-23T06:31:09.361Z,56.10
2019-05-23T06:33:36.043Z,54.60
2019-05-23T06:36:03.256Z,52.20
2019-05-23T06:38:30.075Z,50.40
2019-05-23T06:40:57.533Z,49.70
2019-05-23T06:43:24.541Z,47.90
2019-05-23T06:45:51.451Z,47.40
2019-05-23T06:48:19.586Z,45.50
2019-05-23T06:50:46.416Z,45.80
2019-05-23T06:53:13.270Z,46.10
2019-05-23T06:55:40.317Z,45.20
2019-05-23T06:58:08.517Z,45.10
2019-05-23T07:00:35.625Z,45.20
2019-05-23T07:03:02.755Z,44.70
2019-05-23T07:05:33.656Z,44.80
2019-05-23T07:08:01.006Z,44.00
2019-05-23T07:10:28.132Z,42.80
2019-05-23T07:12:54.829Z,43.00
2019-05-23T07:15:22.984Z,42.80
2019-05-23T07:17:50.101Z,43.40
2019-05-23T07:20:17.129Z,45.00
2019-05-23T07:22:43.808Z,43.10
2019-05-23T07:25:11.303Z,41.40
2019-05-23T07:27:38.213Z,40.20
2019-05-23T07:30:09.517Z,39.60
2019-05-23T07:32:36.489Z,39.00
2019-05-23T07:35:03.930Z,38.00
2019-05-23T07:37:30.738Z,39.60
2019-05-23T07:39:57.714Z,40.10
2019-05-23T07:42:24.773Z,39.80
2019-05-23T07:44:53.472Z,40.50
2019-05-23T07:47:20.310Z,40.30
2019-05-23T07:49:46.907Z,40.40
2019-05-23T07:52:13.914Z,40.60
2019-05-23T07:54:52.328Z,39.30
2019-05-23T07:57:19.229Z,38.10
2019-05-23T07:59:47.398Z,39.10
2019-05-23T08:02:25.636Z,38.90
2019-05-23T08:04:51.576Z,38.60
2019-05-23T08:07:20.828Z,37.60
2019-05-23T08:09:48.064Z,37.00
2019-05-23T08:12:14.752Z,38.00
2019-05-23T08:14:41.454Z,37.90
2019-05-23T08:17:08.805Z,38.30
2019-05-23T08:19:48.904Z,38.60
2019-05-23T08:22:04.402Z,39.00
2019-05-23T08:24:31.558Z,38.50
2019-05-23T08:26:59.631Z,37.70
2019-05-23T08:29:27.313Z,38.20
2019-05-23T08:31:55.292Z,36.20
2019-05-23T08:34:39.916Z,36.30
2019-05-23T08:36:52.392Z,36.10
2019-05-23T08:39:19.555Z,34.30
2019-05-23T08:41:47.385Z,34.20
2019-05-23T08:44:14.968Z,32.80
2019-05-23T08:46:41.815Z,32.70
2019-05-23T08:49:09.421Z,33.00
2019-05-23T08:51:36.512Z,32.30
2019-05-23T08:54:03.577Z,32.40
2019-05-23T08:56:30.464Z,32.60
2019-05-23T08:58:58.152Z,33.40
2019-05-23T09:01:25.289Z,32.30
2019-05-23T09:03:52.133Z,31.10
2019-05-23T09:06:19.446Z,32.20
2019-05-23T09:08:47.827Z,33.40
2019-05-23T09:11:16.559Z,31.00
2019-05-23T09:13:43.808Z,30.70
2019-05-23T09:16:11.495Z,30.10
2019-05-23T09:18:38.377Z,30.00
2019-05-23T09:21:05.938Z,30.10
2019-05-23T09:23:32.801Z,30.50
2019-05-23T09:25:59.516Z,31.60
2019-05-23T09:28:26.471Z,30.50
2019-05-23T09:30:53.323Z,29.60
2019-05-23T09:33:20.076Z,29.10
2019-05-23T09:35:47.848Z,27.80
2019-05-23T09:38:15.604Z,28.90
2019-05-23T09:40:42.217Z,29.70
2019-05-23T09:43:09.048Z,28.90
2019-05-23T09:45:36.153Z,30.80
2019-05-23T09:48:03.357Z,29.40
2019-05-23T09:50:30.896Z,29.30
2019-05-23T09:52:57.809Z,30.70
2019-05-23T09:55:24.699Z,30.00
2019-05-23T09:57:51.461Z,29.00
2019-05-23T10:00:23.121Z,29.60
2019-05-23T10:02:50.203Z,30.00
2019-05-23T10:05:17.021Z,27.20
2019-05-23T10:07:44.094Z,25.10
2019-05-23T10:10:12.367Z,25.70
2019-05-23T10:12:39.190Z,27.90
2019-05-23T10:15:08.986Z,28.60
2019-05-23T10:17:35.803Z,28.70
2019-05-23T10:20:03.485Z,26.10
2019-05-23T10:22:30.527Z,26.50
2019-05-23T10:24:57.266Z,26.30
2019-05-23T10:27:24.115Z,26.90
2019-05-23T10:29:50.906Z,26.40
2019-05-23T10:32:18.121Z,27.50
2019-05-23T10:34:44.939Z,26.90
2019-05-23T10:37:13.976Z,27.90
2019-05-23T10:39:45.866Z,26.50
2019-05-23T10:42:13.046Z,27.50
2019-05-23T10:44:39.676Z,27.40
2019-05-23T10:47:06.353Z,26.40
2019-05-23T10:49:33.241Z,28.20
2019-05-23T10:51:59.992Z,27.60
2019-05-23T10:54:26.800Z,26.70
2019-05-23T10:56:53.576Z,26.90
2019-05-23T10:59:20.863Z,27.10
2019-05-23T11:01:48.034Z,26.00
2019-05-23T11:04:14.796Z,26.10
2019-05-23T11:06:42.272Z,26.40
2019-05-23T11:09:10.958Z,28.50
2019-05-23T11:11:37.830Z,29.20
2019-05-23T11:14:08.645Z,28.80
2019-05-23T11:16:35.884Z,28.60
2019-05-23T11:19:03.263Z,28.40
2019-05-23T11:21:30.113Z,29.40
2019-05-23T11:23:57.470Z,27.40
2019-05-23T11:26:24.164Z,27.20
2019-05-23T11:28:51.038Z,28.20
2019-05-23T11:31:18.691Z,28.10
2019-05-23T11:33:45.584Z,28.60
2019-05-23T11:36:12.394Z,28.90
2019-05-23T11:38:39.869Z,28.70
2019-05-23T11:41:06.609Z,28.80
2019-05-23T11:43:33.434Z,29.10
2019-05-23T11:46:03.569Z,30.50
2019-05-23T11:48:31.568Z,28.90
2019-05-23T11:50:58.356Z,28.00
2019-05-23T11:53:25.212Z,28.60
2019-05-23T11:55:54.417Z,27.70
2019-05-23T11:58:20.767Z,28.60
2019-05-23T12:01:20.194Z,29.50
2019-05-23T12:03:40.057Z,29.40
2019-05-23T12:06:07.362Z,28.80
2019-05-23T12:08:34.098Z,29.70
2019-05-23T12:11:00.938Z,29.60
2019-05-23T12:13:27.734Z,29.30
2019-05-23T12:15:55.021Z,28.20
2019-05-23T12:18:22.255Z,29.50
2019-05-23T12:20:48.907Z,29.80
2019-05-23T12:23:15.686Z,29.60
2019-05-23T12:25:42.427Z,30.10
2019-05-23T12:28:10.491Z,30.90
2019-05-23T12:30:37.238Z,31.20
2019-05-23T12:33:04.258Z,31.00
2019-05-23T12:35:31.135Z,31.70
2019-05-23T12:37:57.824Z,31.30
2019-05-23T12:40:24.512Z,31.10
2019-05-23T12:42:51.158Z,30.40
2019-05-23T12:45:18.250Z,29.40
2019-05-23T12:47:53.767Z,29.80
2019-05-23T12:50:24.143Z,30.10
2019-05-23T12:52:50.864Z,30.20
2019-05-23T12:55:17.944Z,29.70
2019-05-23T12:57:44.759Z,29.90
2019-05-23T13:00:25.392Z,29.70
2019-05-23T13:02:52.122Z,29.90
2019-05-23T13:05:19.478Z,29.20
2019-05-23T13:07:46.708Z,28.90
2019-05-23T13:10:13.966Z,28.50
2019-05-23T13:12:40.695Z,27.90
2019-05-23T13:15:07.564Z,28.40
2019-05-23T13:17:34.828Z,27.90
2019-05-23T13:20:03.072Z,28.30
2019-05-23T13:22:29.653Z,28.10
2019-05-23T13:24:56.321Z,29.20
2019-05-23T13:27:23.538Z,28.90
2019-05-23T13:29:50.409Z,28.50
2019-05-23T13:32:17.676Z,27.90
2019-05-23T13:34:44.509Z,28.60
2019-05-23T13:37:17.066Z,28.60
2019-05-23T13:39:43.209Z,28.80
2019-05-23T13:42:09.800Z,28.60
2019-05-23T13:44:36.998Z,28.30
2019-05-23T13:47:03.851Z,28.30
2019-05-23T13:49:31.603Z,28.40
2019-05-23T13:51:58.794Z,28.40
2019-05-23T13:54:25.487Z,28.40
2019-05-23T13:56:53.303Z,28.90
2019-05-23T13:59:20.315Z,28.00
2019-05-23T14:01:47.460Z,27.60
2019-05-23T14:04:14.581Z,27.10
2019-05-23T14:06:41.329Z,28.10
2019-05-23T14:09:08.374Z,28.10
2019-05-23T14:11:35.626Z,27.90
2019-05-23T14:14:03.163Z,26.70
2019-05-23T14:16:33.629Z,26.70
2019-05-23T14:19:00.477Z,26.10
2019-05-23T14:21:33.067Z,27.10
2019-05-23T14:24:00.562Z,27.40
2019-05-23T14:26:29.190Z,26.50
2019-05-23T14:28:56.023Z,26.50
2019-05-23T14:31:22.746Z,26.10
2019-05-23T14:34:18.508Z,26.90
2019-05-23T14:37:03.424Z,27.30
2019-05-23T14:39:36.219Z,27.80
2019-05-23T14:42:09.637Z,29.50
2019-05-23T14:44:36.627Z,30.10
2019-05-23T14:47:29.337Z,29.50
2019-05-23T14:50:10.105Z,29.30
2019-05-23T14:52:40.637Z,28.20
2019-05-23T14:55:10.388Z,27.90
2019-05-23T14:57:37.465Z,27.30
2019-05-23T15:00:04.777Z,27.20
2019-05-23T15:02:31.932Z,26.80
2019-05-23T15:04:59.036Z,26.80
2019-05-23T15:07:25.823Z,26.50
2019-05-23T15:09:52.510Z,25.90
2019-05-23T15:12:19.422Z,26.70
2019-05-23T15:14:46.205Z,26.30
2019-05-23T15:17:12.834Z,26.10
2019-05-23T15:19:44.886Z,26.60
2019-05-23T15:22:08.700Z,26.00
2019-05-23T15:24:35.479Z,25.80
2019-05-23T15:27:02.574Z,25.60
2019-05-23T15:29:29.634Z,26.00
2019-05-23T15:32:02.102Z,26.50
2019-05-23T15:34:25.127Z,26.30
2019-05-23T15:36:52.206Z,28.20
2019-05-23T15:39:19.535Z,27.00
2019-05-23T15:41:46.227Z,27.50
2019-05-23T15:44:25.984Z,27.60
2019-05-23T15:46:41.684Z,28.40
2019-05-23T15:49:09.969Z,29.10
2019-05-23T15:51:45.773Z,29.00
2019-05-23T15:54:31.393Z,28.70
2019-05-23T15:57:10.467Z,28.70
2019-05-23T15:59:47.360Z,29.50
2019-05-23T16:02:20.370Z,29.60
2019-05-23T16:04:48.051Z,31.70
2019-05-23T16:07:14.971Z,32.90
2019-05-23T16:09:42.221Z,33.70
2019-05-23T16:12:11.195Z,35.00
2019-05-23T16:14:37.889Z,36.20
2019-05-23T16:17:05.575Z,35.90
2019-05-23T16:19:32.509Z,36.70
2019-05-23T16:22:00.126Z,36.50
2019-05-23T16:24:27.142Z,37.10
2019-05-23T16:26:53.843Z,37.40
2019-05-23T16:29:21.312Z,37.10
2019-05-23T16:31:48.374Z,37.00
2019-05-23T16:34:15.252Z,37.40
2019-05-23T16:36:42.151Z,37.10
2019-05-23T16:39:08.938Z,36.80
2019-05-23T16:41:35.608Z,36.80
2019-05-23T16:44:02.539Z,37.30
2019-05-23T16:46:29.385Z,37.50
2019-05-23T16:48:56.281Z,38.10
2019-05-23T16:51:23.174Z,37.90
2019-05-23T16:53:50.902Z,38.10
2019-05-23T16:56:23.269Z,37.90
2019-05-23T16:59:11.316Z,38.10
2019-05-23T17:01:57.003Z,37.80
2019-05-23T17:04:21.764Z,38.80
2019-05-23T17:07:07.494Z,39.30
2019-05-23T17:10:06.694Z,39.60
2019-05-23T17:12:36.939Z,40.40
2019-05-23T17:15:14.731Z,40.70
2019-05-23T17:18:02.411Z,41.00
2019-05-23T17:20:35.459Z,41.00
2019-05-23T17:23:27.475Z,41.10
2019-05-23T17:26:06.413Z,41.30
2019-05-23T17:28:38.583Z,41.90
2019-05-23T17:31:08.107Z,41.30
2019-05-23T17:33:37.090Z,41.80
2019-05-23T17:36:04.131Z,41.70
2019-05-23T17:38:30.890Z,41.50
2019-05-23T17:40:57.714Z,41.30
2019-05-23T17:43:25.380Z,42.10
2019-05-23T17:45:52.062Z,42.20
2019-05-23T17:48:18.680Z,42.50
2019-05-23T17:50:45.417Z,43.00
2019-05-23T17:53:12.099Z,42.60
2019-05-23T17:55:38.841Z,42.60
2019-05-23T17:58:05.920Z,42.40
2019-05-23T18:00:38.550Z,43.00
2019-05-23T18:03:05.752Z,42.40
2019-05-23T18:05:33.158Z,42.50
2019-05-23T18:08:00.712Z,43.10
2019-05-23T18:10:44.046Z,43.10
2019-05-23T18:12:59.936Z,43.20
2019-05-23T18:15:27.366Z,43.40
2019-05-23T18:17:58.753Z,43.40
2019-05-23T18:20:24.047Z,44.00
2019-05-23T18:22:50.987Z,44.30
2019-05-23T18:25:18.781Z,43.90
2019-05-23T18:27:45.739Z,43.90
2019-05-23T18:30:29.661Z,44.10
2019-05-23T18:32:56.535Z,43.80
2019-05-23T18:35:23.535Z,44.60
2019-05-23T18:37:50.197Z,43.90
2019-05-23T18:40:16.977Z,44.40
2019-05-23T18:42:45.497Z,44.20
2019-05-23T18:45:13.646Z,44.30
2019-05-23T18:47:42.185Z,44.20
2019-05-23T18:50:12.411Z,44.40
2019-05-23T18:52:39.267Z,45.10
2019-05-23T18:55:06.477Z,45.20
2019-05-23T18:57:33.779Z,45.00
2019-05-23T19:00:00.409Z,45.30
2019-05-23T19:02:27.046Z,45.50
2019-05-23T19:04:54.731Z,45.70
2019-05-23T19:09:48.684Z,45.80
2019-05-23T19:12:15.783Z,46.30
2019-05-23T19:14:42.527Z,46.70
2019-05-23T19:17:10.057Z,47.00
2019-05-23T19:19:37.205Z,47.20
2019-05-23T19:22:04.306Z,47.50
2019-05-23T19:24:31.818Z,47.90
2019-05-23T19:27:00.148Z,48.90
2019-05-23T19:29:27.217Z,48.70
2019-05-23T19:31:54.949Z,49.20
2019-05-23T19:34:21.565Z,49.60
2019-05-23T19:36:48.528Z,50.10
2019-05-23T19:39:16.404Z,50.50
2019-05-23T19:41:43.212Z,51.00
2019-05-23T19:44:10.126Z,51.50
2019-05-23T19:46:37.533Z,51.70
2019-05-23T19:49:05.391Z,52.40
2019-05-23T19:51:32.487Z,52.50
2019-05-23T19:53:59.736Z,52.70
2019-05-23T19:56:26.659Z,53.20
2019-05-23T19:58:53.391Z,53.40
2019-05-23T20:01:21.251Z,53.70
2019-05-23T20:03:47.906Z,54.00
2019-05-23T20:06:15.679Z,54.50
2019-05-23T20:08:43.534Z,54.60
2019-05-23T20:11:10.899Z,55.00
2019-05-23T20:13:38.167Z,55.10
2019-05-23T20:16:04.899Z,55.50
2019-05-23T20:18:31.637Z,55.90
2019-05-23T20:20:58.960Z,55.90
2019-05-23T20:23:25.657Z,56.20
2019-05-23T20:25:52.513Z,56.50
2019-05-23T20:28:19.733Z,56.70
2019-05-23T20:30:51.408Z,56.90
2019-05-23T20:33:18.369Z,57.10
2019-05-23T20:35:45.155Z,57.10
2019-05-23T20:38:11.943Z,57.40
2019-05-23T20:40:38.750Z,57.50
2019-05-23T20:43:05.973Z,57.90
2019-05-23T20:45:33.136Z,58.20
2019-05-23T20:47:59.830Z,58.10
2019-05-23T20:50:27.708Z,58.60
2019-05-23T20:52:55.319Z,58.90
2019-05-23T20:55:22.475Z,58.40
2019-05-23T20:57:49.106Z,59.20
2019-05-23T21:00:22.293Z,59.20
2019-05-23T21:02:49.028Z,59.00
2019-05-23T21:05:15.930Z,59.30
2019-05-23T21:07:42.678Z,59.50
2019-05-23T21:10:13.676Z,59.80
2019-05-23T21:12:40.494Z,59.70
2019-05-23T21:15:07.340Z,59.80
2019-05-23T21:17:34.261Z,60.00
2019-05-23T21:20:00.993Z,60.50
2019-05-23T21:22:28.381Z,60.80
2019-05-23T21:24:55.114Z,61.20
2019-05-23T21:27:22.255Z,61.40
2019-05-23T21:29:49.042Z,61.70
2019-05-23T21:32:16.472Z,62.30
2019-05-23T21:34:45.083Z,62.80
2019-05-23T21:37:11.984Z,63.20
2019-05-23T21:39:38.864Z,63.20
2019-05-23T21:42:06.597Z,63.40
2019-05-23T21:44:33.299Z,63.30
2019-05-23T21:47:00.014Z,63.20
2019-05-23T21:49:26.928Z,63.40
2019-05-23T21:51:53.568Z,63.60
2019-05-23T21:54:20.417Z,64.10
2019-05-23T21:56:47.368Z,64.30
2019-05-23T21:59:14.013Z,64.40
2019-05-23T22:01:58.901Z,65.60
2019-05-23T22:04:28.544Z,64.90
2019-05-23T22:07:00.487Z,65.00
2019-05-23T22:09:27.167Z,65.10
2019-05-23T22:11:54.828Z,65.50
2019-05-23T22:14:21.561Z,65.60
2019-05-23T22:16:49.472Z,65.90
2019-05-23T22:19:17.633Z,66.10
2019-05-23T22:21:44.426Z,66.30
2019-05-23T22:24:11.346Z,66.60
2019-05-23T22:26:38.151Z,67.10
2019-05-23T22:29:06.069Z,67.40
2019-05-23T22:31:33.368Z,67.60
2019-05-23T22:34:06.351Z,67.90
2019-05-23T22:36:33.060Z,68.00
2019-05-23T22:39:00.077Z,68.50
2019-05-23T22:41:26.803Z,68.70
2019-05-23T22:43:53.461Z,68.90
2019-05-23T22:46:22.241Z,69.00
2019-05-23T22:48:48.877Z,69.00
2019-05-23T22:51:15.769Z,69.50
2019-05-23T22:53:42.458Z,70.00
2019-05-23T22:56:09.182Z,70.50
2019-05-23T22:58:35.929Z,70.60
2019-05-23T23:01:02.920Z,70.60
2019-05-23T23:03:29.639Z,70.70
2019-05-23T23:05:56.289Z,70.80
2019-05-23T23:08:23.289Z,71.20
2019-05-23T23:10:50.154Z,71.70
2019-05-23T23:13:17.200Z,71.80
2019-05-23T23:15:43.893Z,71.90
2019-05-23T23:18:10.826Z,72.00
2019-05-23T23:20:37.901Z,72.20
2019-05-23T23:23:04.929Z,72.20
2019-05-23T23:25:31.656Z,72.20
2019-05-23T23:27:58.511Z,72.40
2019-05-23T23:30:28.488Z,72.50
2019-05-23T23:32:55.205Z,72.80
2019-05-23T23:35:21.838Z,72.40
2019-05-23T23:37:48.611Z,73.10
2019-05-23T23:40:15.257Z,73.60
2019-05-23T23:42:42.383Z,74.20
2019-05-23T23:45:28.024Z,74.20
2019-05-23T23:48:12.987Z,74.60
2019-05-23T23:50:58.270Z,74.70
2019-05-23T23:53:43.482Z,74.60
2019-05-23T23:56:28.544Z,74.70
2019-05-23T23:58:54.851Z,75.00
